createdAt,value
2022-12-20T00:01:36.351Z,17.46
2022-12-20T00:04:02.894Z,17.47
2022-12-20T00:06:28.509Z,17.48
2022-12-20T00:08:54.914Z,17.46
2022-12-20T00:11:20.463Z,17.46
2022-12-20T00:13:46.151Z,17.45
2022-12-20T00:16:12.762Z,17.47
2022-12-20T00:18:38.815Z,17.47
2022-12-20T00:21:05.680Z,17.46
2022-12-20T00:23:31.326Z,17.46
2022-12-20T00:25:59.629Z,17.45
2022-12-20T00:28:25.188Z,17.45
2022-12-20T00:30:54.330Z,17.47
2022-12-20T00:33:19.892Z,17.45
2022-12-20T00:35:45.448Z,17.45
2022-12-20T00:38:11.006Z,17.45
2022-12-20T00:40:36.548Z,17.46
2022-12-20T00:43:02.134Z,17.45
2022-12-20T00:45:27.697Z,17.44
2022-12-20T00:47:53.261Z,17.45
2022-12-20T00:50:18.820Z,17.44
2022-12-20T00:52:44.383Z,17.44
2022-12-20T00:55:09.932Z,17.45
2022-12-20T00:57:35.544Z,17.45
2022-12-20T01:00:01.100Z,17.45
2022-12-20T01:02:26.870Z,17.44
2022-12-20T01:04:52.636Z,17.44
2022-12-20T01:07:19.383Z,17.44
2022-12-20T01:09:44.943Z,17.45
2022-12-20T01:12:10.653Z,17.45
2022-12-20T01:14:36.371Z,17.44
2022-12-20T01:17:01.994Z,17.44
2022-12-20T01:19:27.622Z,17.45
2022-12-20T01:21:53.176Z,17.44
2022-12-20T01:24:19.419Z,17.44
2022-12-20T01:26:45.021Z,17.44
2022-12-20T01:29:10.607Z,17.44
2022-12-20T01:31:36.248Z,17.45
2022-12-20T01:34:02.291Z,17.42
2022-12-20T01:36:29.222Z,17.44
2022-12-20T01:38:55.569Z,17.43
2022-12-20T01:41:21.617Z,17.44
2022-12-20T01:46:24.075Z,17.45
2022-12-20T01:49:10.015Z,17.44
2022-12-20T01:51:36.469Z,17.44
2022-12-20T01:54:04.764Z,17.43
2022-12-20T01:56:30.312Z,17.42
2022-12-20T01:58:55.873Z,17.42
2022-12-20T02:01:22.283Z,17.43
2022-12-20T02:03:48.201Z,17.43
2022-12-20T02:06:18.692Z,17.44
2022-12-20T02:08:44.354Z,17.44
2022-12-20T02:11:15.812Z,17.43
2022-12-20T02:13:44.966Z,17.42
2022-12-20T02:16:11.013Z,17.44
2022-12-20T02:18:46.401Z,17.43
2022-12-20T02:21:13.803Z,17.43
2022-12-20T02:23:51.598Z,17.44
2022-12-20T02:26:22.896Z,17.43
2022-12-20T02:28:54.769Z,17.43
2022-12-20T02:31:24.078Z,17.42
2022-12-20T02:33:49.653Z,17.42
2022-12-20T02:36:17.154Z,17.43
2022-12-20T02:38:42.712Z,17.42
2022-12-20T02:41:14.166Z,17.42
2022-12-20T02:44:00.622Z,17.43
2022-12-20T02:46:26.330Z,17.42
2022-12-20T02:48:52.161Z,17.43
2022-12-20T02:51:17.764Z,17.43
2022-12-20T02:53:43.324Z,17.43
2022-12-20T02:56:11.669Z,17.44
2022-12-20T02:58:37.976Z,17.42
2022-12-20T03:01:05.693Z,17.41
2022-12-20T03:03:32.174Z,17.43
2022-12-20T03:05:57.776Z,17.42
2022-12-20T03:08:23.475Z,17.43
2022-12-20T03:10:49.119Z,17.43
2022-12-20T03:13:14.686Z,17.42
2022-12-20T03:15:40.268Z,17.43
2022-12-20T03:18:05.870Z,17.42
2022-12-20T03:20:31.482Z,17.42
2022-12-20T03:22:57.053Z,17.41
2022-12-20T03:25:22.622Z,17.42
2022-12-20T03:27:48.195Z,17.42
2022-12-20T03:30:13.920Z,17.43
2022-12-20T03:32:39.487Z,17.42
2022-12-20T03:35:05.099Z,17.41
2022-12-20T03:37:30.659Z,17.42
2022-12-20T03:39:56.210Z,17.41
2022-12-20T03:42:21.770Z,17.41
2022-12-20T03:44:47.377Z,17.42
2022-12-20T03:47:12.971Z,17.41
2022-12-20T03:49:38.549Z,17.41
2022-12-20T03:52:04.128Z,17.41
2022-12-20T03:54:29.706Z,17.41
2022-12-20T03:56:55.264Z,17.41
2022-12-20T03:59:20.822Z,17.41
2022-12-20T04:01:46.468Z,17.41
2022-12-20T04:04:13.206Z,17.41
2022-12-20T04:06:38.761Z,17.40
2022-12-20T04:09:04.326Z,17.40
2022-12-20T04:11:29.888Z,17.41
2022-12-20T04:13:55.453Z,17.41
2022-12-20T04:16:21.828Z,17.40
2022-12-20T04:18:47.496Z,17.41
2022-12-20T04:21:13.176Z,17.41
2022-12-20T04:23:39.295Z,17.41
2022-12-20T04:26:05.326Z,17.41
2022-12-20T04:28:31.303Z,17.40
2022-12-20T04:30:56.950Z,17.40
2022-12-20T04:33:22.650Z,17.39
2022-12-20T04:35:48.266Z,17.41
2022-12-20T04:38:14.079Z,17.41
2022-12-20T04:40:39.640Z,17.40
2022-12-20T04:43:05.231Z,17.40
2022-12-20T04:45:30.787Z,17.41
2022-12-20T04:47:56.336Z,17.41
2022-12-20T04:50:21.895Z,17.40
2022-12-20T04:53:07.346Z,17.39
2022-12-20T04:55:36.559Z,17.40
2022-12-20T04:58:07.294Z,17.39
2022-12-20T05:00:33.496Z,17.39
2022-12-20T05:02:59.175Z,17.40
2022-12-20T05:05:24.876Z,17.40
2022-12-20T05:07:50.596Z,17.40
2022-12-20T05:10:16.413Z,17.40
2022-12-20T05:12:41.983Z,17.40
2022-12-20T05:15:07.784Z,17.39
2022-12-20T05:17:33.422Z,17.39
2022-12-20T05:19:58.999Z,17.39
2022-12-20T05:22:44.454Z,17.39
2022-12-20T05:25:30.288Z,17.40
2022-12-20T05:27:55.863Z,17.40
2022-12-20T05:30:21.607Z,17.40
2022-12-20T05:32:47.159Z,17.40
2022-12-20T05:35:12.712Z,17.45
2022-12-20T05:37:38.272Z,17.43
2022-12-20T05:40:04.223Z,17.42
2022-12-20T05:42:29.801Z,17.41
2022-12-20T05:44:55.360Z,17.41
2022-12-20T05:47:20.942Z,17.41
2022-12-20T05:49:46.511Z,17.41
2022-12-20T05:52:12.067Z,17.41
2022-12-20T05:54:37.641Z,17.40
2022-12-20T05:57:03.214Z,17.41
2022-12-20T05:59:28.773Z,17.40
2022-12-20T06:01:54.452Z,17.40
2022-12-20T06:04:20.249Z,17.47
2022-12-20T06:06:46.005Z,17.42
2022-12-20T06:09:11.560Z,17.43
2022-12-20T06:11:37.361Z,17.43
2022-12-20T06:14:03.000Z,17.42
2022-12-20T06:16:28.783Z,17.41
2022-12-20T06:18:54.445Z,17.40
2022-12-20T06:21:20.003Z,17.41
2022-12-20T06:23:45.698Z,17.40
2022-12-20T06:26:11.283Z,17.41
2022-12-20T06:28:41.980Z,17.42
2022-12-20T06:31:08.090Z,17.40
2022-12-20T06:33:33.744Z,17.41
2022-12-20T06:35:59.304Z,17.40
2022-12-20T06:38:24.853Z,17.41
2022-12-20T06:40:50.409Z,17.40
2022-12-20T06:43:15.982Z,17.42
2022-12-20T06:45:42.764Z,17.45
2022-12-20T06:48:08.461Z,17.44
2022-12-20T06:50:34.021Z,17.44
2022-12-20T06:52:59.577Z,17.43
2022-12-20T06:55:25.154Z,17.43
2022-12-20T06:57:50.715Z,17.44
2022-12-20T07:00:16.470Z,17.43
2022-12-20T07:02:42.124Z,17.43
2022-12-20T07:05:07.767Z,17.44
2022-12-20T07:07:37.269Z,17.43
2022-12-20T07:10:06.514Z,17.44
2022-12-20T07:12:32.734Z,17.44
2022-12-20T07:14:58.450Z,17.44
2022-12-20T07:17:24.076Z,17.44
2022-12-20T07:19:51.638Z,17.44
2022-12-20T07:22:17.255Z,17.45
2022-12-20T07:24:42.813Z,17.45
2022-12-20T07:27:09.804Z,17.47
2022-12-20T07:29:35.486Z,17.46
2022-12-20T07:32:01.706Z,17.48
2022-12-20T07:34:27.338Z,17.48
2022-12-20T07:36:52.911Z,17.59
2022-12-20T07:39:18.557Z,17.61
2022-12-20T07:41:44.172Z,17.66
2022-12-20T07:44:09.734Z,17.65
2022-12-20T07:46:35.435Z,17.64
2022-12-20T07:49:01.084Z,17.63
2022-12-20T07:51:27.998Z,17.61
2022-12-20T07:53:58.799Z,17.61
2022-12-20T07:56:24.393Z,17.62
2022-12-20T07:58:50.089Z,17.61
2022-12-20T08:01:15.730Z,17.60
2022-12-20T08:03:43.463Z,17.61
2022-12-20T08:06:09.279Z,17.64
2022-12-20T08:08:36.053Z,17.68
2022-12-20T08:11:01.712Z,17.67
2022-12-20T08:13:27.263Z,17.67
2022-12-20T08:15:52.831Z,17.66
2022-12-20T08:18:18.398Z,17.73
2022-12-20T08:20:43.955Z,17.71
2022-12-20T08:23:09.513Z,17.70
2022-12-20T08:25:41.243Z,17.68
2022-12-20T08:28:07.216Z,17.67
2022-12-20T08:30:32.821Z,17.68
2022-12-20T08:32:58.406Z,17.66
2022-12-20T08:35:23.964Z,17.67
2022-12-20T08:37:51.223Z,17.67
2022-12-20T08:40:16.793Z,17.67
2022-12-20T08:42:42.357Z,17.67
2022-12-20T08:45:09.216Z,17.66
2022-12-20T08:47:34.767Z,17.66
2022-12-20T08:50:00.394Z,17.67
2022-12-20T08:52:27.282Z,17.68
2022-12-20T08:54:52.837Z,17.68
2022-12-20T08:57:18.415Z,17.68
2022-12-20T08:59:43.980Z,17.68
2022-12-20T09:02:09.736Z,17.69
2022-12-20T09:04:35.424Z,17.69
2022-12-20T09:07:01.044Z,17.69
2022-12-20T09:09:26.598Z,17.69
2022-12-20T09:11:52.159Z,17.70
2022-12-20T09:14:18.033Z,17.70
2022-12-20T09:16:43.599Z,17.71
2022-12-20T09:19:10.940Z,17.70
2022-12-20T09:21:36.863Z,17.71
2022-12-20T09:24:02.441Z,17.71
2022-12-20T09:26:28.011Z,17.71
2022-12-20T09:28:53.549Z,17.71
2022-12-20T09:31:20.125Z,17.71
2022-12-20T09:33:45.798Z,17.71
2022-12-20T09:36:12.223Z,17.71
2022-12-20T09:38:37.770Z,17.70
2022-12-20T09:41:03.953Z,17.70
2022-12-20T09:43:29.518Z,17.69
2022-12-20T09:45:56.818Z,17.70
2022-12-20T09:48:23.604Z,17.69
2022-12-20T09:50:54.693Z,17.70
2022-12-20T09:53:40.175Z,17.68
2022-12-20T09:56:09.637Z,17.69
2022-12-20T09:58:37.050Z,17.69
2022-12-20T10:01:15.161Z,17.68
2022-12-20T10:03:41.234Z,17.67
2022-12-20T10:06:09.133Z,17.68
2022-12-20T10:08:37.228Z,17.68
2022-12-20T10:11:07.857Z,17.68
2022-12-20T10:13:37.258Z,17.68
2022-12-20T10:16:22.748Z,17.67
2022-12-20T10:18:54.221Z,17.65
2022-12-20T10:21:26.229Z,17.67
2022-12-20T10:24:00.940Z,17.69
2022-12-20T10:26:26.672Z,17.80
2022-12-20T10:28:54.494Z,17.82
2022-12-20T10:31:20.423Z,17.79
2022-12-20T10:33:46.013Z,17.87
2022-12-20T10:36:31.861Z,17.84
2022-12-20T10:38:58.203Z,17.87
2022-12-20T10:41:26.060Z,17.84
2022-12-20T10:43:55.482Z,17.82
2022-12-20T10:46:21.144Z,17.79
2022-12-20T10:48:47.380Z,17.79
2022-12-20T10:51:16.627Z,17.79
2022-12-20T10:53:58.691Z,17.77
2022-12-20T10:56:26.767Z,17.79
2022-12-20T10:58:54.529Z,17.79
2022-12-20T11:01:20.443Z,17.78
2022-12-20T11:06:29.417Z,17.80
2022-12-20T11:09:09.941Z,17.79
2022-12-20T11:11:35.513Z,17.79
2022-12-20T11:14:12.715Z,17.80
2022-12-20T11:16:39.186Z,17.80
2022-12-20T11:19:13.265Z,17.80
2022-12-20T11:21:42.262Z,17.81
2022-12-20T11:24:10.371Z,17.80
2022-12-20T11:26:41.539Z,17.82
2022-12-20T11:29:26.999Z,17.82
2022-12-20T11:31:56.618Z,17.86
2022-12-20T11:34:33.066Z,17.86
2022-12-20T11:37:04.007Z,17.86
2022-12-20T11:39:31.857Z,17.84
2022-12-20T11:42:00.578Z,17.84
2022-12-20T11:44:53.326Z,17.85
2022-12-20T11:47:43.362Z,17.85
2022-12-20T11:50:12.820Z,17.85
2022-12-20T11:52:40.745Z,17.86
2022-12-20T11:55:15.092Z,17.85
2022-12-20T11:58:16.480Z,17.86
2022-12-20T12:00:31.915Z,17.86
2022-12-20T12:03:00.187Z,17.86
2022-12-20T12:05:27.380Z,17.86
2022-12-20T12:07:55.682Z,17.86
2022-12-20T12:10:22.753Z,17.86
2022-12-20T12:13:06.468Z,17.87
2022-12-20T12:15:48.042Z,17.87
2022-12-20T12:18:16.101Z,17.87
2022-12-20T12:20:47.309Z,17.88
2022-12-20T12:23:15.831Z,17.88
2022-12-20T12:25:41.387Z,17.88
2022-12-20T12:28:08.957Z,17.88
2022-12-20T12:30:36.054Z,17.88
2022-12-20T12:33:02.882Z,17.88
2022-12-20T12:35:48.348Z,17.88
2022-12-20T12:38:17.619Z,17.88
2022-12-20T12:40:52.279Z,17.88
2022-12-20T12:43:22.521Z,17.89
2022-12-20T12:45:51.753Z,17.88
2022-12-20T12:48:26.891Z,17.88
2022-12-20T12:50:53.404Z,17.98
2022-12-20T12:53:21.152Z,17.96
2022-12-20T12:55:47.310Z,17.94
2022-12-20T12:58:32.785Z,17.95
2022-12-20T13:01:13.345Z,17.96
2022-12-20T13:03:40.491Z,17.99
2022-12-20T13:11:33.843Z,18.02
2022-12-20T13:14:19.293Z,18.00
2022-12-20T13:19:31.547Z,18.00
2022-12-20T13:21:57.647Z,18.04
2022-12-20T13:24:44.338Z,18.13
2022-12-20T13:27:29.879Z,18.08
2022-12-20T13:32:50.028Z,18.01
2022-12-20T13:35:35.507Z,18.06
2022-12-20T13:38:04.038Z,18.10
2022-12-20T13:40:49.490Z,18.05
2022-12-20T13:43:21.002Z,18.04
2022-12-20T13:45:47.478Z,18.02
2022-12-20T13:48:17.257Z,18.03
2022-12-20T13:50:57.784Z,18.02
2022-12-20T13:53:23.940Z,18.01
2022-12-20T13:55:49.511Z,18.01
2022-12-20T13:58:16.401Z,18.00
2022-12-20T14:00:41.981Z,18.01
2022-12-20T14:03:13.117Z,18.07
2022-12-20T14:05:38.730Z,18.06
2022-12-20T14:08:06.768Z,18.05
2022-12-20T14:10:32.843Z,18.05
2022-12-20T14:12:58.398Z,18.04
2022-12-20T14:15:25.440Z,18.04
2022-12-20T14:17:51.006Z,18.03
2022-12-20T14:20:17.519Z,18.04
2022-12-20T14:22:50.288Z,18.09
2022-12-20T14:25:16.271Z,18.12
2022-12-20T14:27:41.838Z,18.09
2022-12-20T14:30:24.006Z,18.08
2022-12-20T14:32:49.563Z,18.08
2022-12-20T14:35:18.838Z,18.07
2022-12-20T14:37:51.334Z,18.08
2022-12-20T14:40:17.540Z,18.07
2022-12-20T14:42:43.206Z,18.07
2022-12-20T14:45:11.476Z,18.06
2022-12-20T14:47:37.191Z,18.09
2022-12-20T14:50:04.363Z,18.09
2022-12-20T14:52:37.312Z,18.10
2022-12-20T14:55:09.634Z,18.09
2022-12-20T14:57:38.454Z,18.09
2022-12-20T15:00:14.308Z,18.09
2022-12-20T15:05:35.979Z,18.09
2022-12-20T15:08:18.617Z,18.09
2022-12-20T15:11:04.152Z,18.09
2022-12-20T15:13:31.027Z,18.09
2022-12-20T15:15:58.224Z,18.09
2022-12-20T15:18:23.816Z,18.09
2022-12-20T15:20:53.881Z,18.09
2022-12-20T15:23:20.142Z,18.10
2022-12-20T15:25:46.225Z,18.10
2022-12-20T15:28:13.928Z,18.10
2022-12-20T15:30:39.479Z,18.10
2022-12-20T15:33:05.031Z,18.10
2022-12-20T15:35:30.585Z,18.09
2022-12-20T15:37:56.156Z,18.11
2022-12-20T15:40:21.707Z,18.10
2022-12-20T15:42:47.273Z,18.11
2022-12-20T15:45:13.283Z,18.10
2022-12-20T15:47:38.842Z,18.11
2022-12-20T15:50:04.791Z,18.12
2022-12-20T15:52:30.340Z,18.11
2022-12-20T15:54:55.919Z,18.11
2022-12-20T15:57:21.496Z,18.11
2022-12-20T16:00:03.811Z,18.11
2022-12-20T16:02:30.354Z,18.10
2022-12-20T16:04:56.751Z,18.10
2022-12-20T16:07:22.725Z,18.09
2022-12-20T16:09:48.297Z,18.10
2022-12-20T16:12:15.192Z,18.09
2022-12-20T16:14:41.361Z,18.09
2022-12-20T16:17:11.052Z,18.08
2022-12-20T16:19:36.613Z,18.08
2022-12-20T16:22:02.180Z,18.08
2022-12-20T16:24:27.735Z,18.08
2022-12-20T16:26:53.291Z,18.07
2022-12-20T16:29:18.848Z,18.07
2022-12-20T16:31:44.611Z,18.06
2022-12-20T16:34:12.143Z,18.06
2022-12-20T16:36:37.755Z,18.07
2022-12-20T16:39:03.343Z,18.05
2022-12-20T16:41:30.305Z,18.06
2022-12-20T16:43:56.839Z,18.05
2022-12-20T16:46:23.296Z,18.04
2022-12-20T16:48:49.020Z,18.05
2022-12-20T16:51:21.789Z,18.04
2022-12-20T16:54:17.492Z,18.05
2022-12-20T16:56:32.854Z,18.04
2022-12-20T16:59:18.617Z,18.03
2022-12-20T17:01:44.440Z,18.03
2022-12-20T17:04:13.009Z,18.04
2022-12-20T17:06:38.580Z,18.03
2022-12-20T17:11:44.645Z,18.03
2022-12-20T17:14:12.927Z,18.02
2022-12-20T17:16:38.920Z,18.02
2022-12-20T17:19:04.678Z,18.01
2022-12-20T17:21:34.233Z,18.01
2022-12-20T17:23:59.853Z,18.02
2022-12-20T17:26:26.213Z,18.01
2022-12-20T17:28:52.538Z,18.00
2022-12-20T17:31:26.492Z,18.00
2022-12-20T17:33:52.391Z,18.00
2022-12-20T17:36:18.024Z,18.00
2022-12-20T17:38:43.615Z,17.99
2022-12-20T17:41:25.399Z,17.99
2022-12-20T17:43:51.304Z,17.99
2022-12-20T17:46:17.215Z,17.99
2022-12-20T17:48:44.047Z,18.00
2022-12-20T17:51:14.315Z,17.98
2022-12-20T17:53:39.873Z,17.98
2022-12-20T17:56:05.519Z,17.98
2022-12-20T17:58:31.069Z,17.97
2022-12-20T18:00:56.670Z,17.97
2022-12-20T18:04:01.647Z,17.97
2022-12-20T18:06:08.698Z,17.97
2022-12-20T18:08:34.447Z,17.97
2022-12-20T18:10:59.999Z,17.97
2022-12-20T18:13:25.559Z,17.97
2022-12-20T18:15:51.112Z,17.96
2022-12-20T18:18:16.667Z,17.96
2022-12-20T18:20:42.219Z,17.96
2022-12-20T18:23:07.779Z,17.96
2022-12-20T18:25:33.330Z,17.95
2022-12-20T18:27:58.890Z,17.95
2022-12-20T18:30:24.443Z,17.95
2022-12-20T18:32:50.008Z,17.95
2022-12-20T18:35:15.559Z,17.94
2022-12-20T18:37:41.122Z,17.94
2022-12-20T18:40:06.999Z,17.94
2022-12-20T18:42:32.568Z,17.94
2022-12-20T18:44:58.137Z,17.92
2022-12-20T18:47:23.714Z,17.92
2022-12-20T18:49:49.273Z,17.92
2022-12-20T18:52:14.975Z,17.92
2022-12-20T18:54:41.005Z,17.92
2022-12-20T18:57:06.638Z,17.92
2022-12-20T18:59:32.790Z,17.92
2022-12-20T19:01:58.683Z,17.92
2022-12-20T19:04:25.304Z,17.91
2022-12-20T19:06:50.987Z,17.90
2022-12-20T19:09:16.543Z,17.91
2022-12-20T19:11:42.199Z,17.90
2022-12-20T19:14:08.046Z,17.90
2022-12-20T19:16:33.768Z,17.90
2022-12-20T19:18:59.873Z,17.90
2022-12-20T19:21:26.657Z,17.90
2022-12-20T19:23:53.298Z,17.89
2022-12-20T19:26:19.492Z,17.89
2022-12-20T19:28:46.167Z,17.89
2022-12-20T19:31:19.222Z,17.88
2022-12-20T19:33:46.995Z,17.89
2022-12-20T19:36:13.438Z,17.88
2022-12-20T19:38:42.859Z,17.89
2022-12-20T19:41:08.497Z,17.89
2022-12-20T19:43:34.064Z,17.88
2022-12-20T19:45:59.700Z,17.88
2022-12-20T19:48:25.308Z,17.89
2022-12-20T19:50:50.867Z,17.88
2022-12-20T19:53:16.453Z,17.89
2022-12-20T19:55:42.177Z,17.89
2022-12-20T19:58:07.797Z,17.89
2022-12-20T20:00:33.407Z,17.88
2022-12-20T20:02:59.219Z,17.88
2022-12-20T20:05:25.214Z,17.88
2022-12-20T20:07:50.893Z,17.88
2022-12-20T20:10:16.696Z,17.88
2022-12-20T20:12:42.247Z,17.88
2022-12-20T20:15:07.897Z,17.88
2022-12-20T20:17:34.946Z,17.87
2022-12-20T20:20:00.510Z,17.87
2022-12-20T20:22:26.065Z,17.87
2022-12-20T20:24:51.627Z,17.88
2022-12-20T20:27:17.188Z,17.87
2022-12-20T20:29:42.882Z,17.86
2022-12-20T20:32:08.432Z,17.86
2022-12-20T20:34:34.000Z,17.87
2022-12-20T20:37:00.206Z,17.86
2022-12-20T20:39:25.778Z,17.87
2022-12-20T20:41:51.337Z,17.86
2022-12-20T20:44:16.926Z,17.85
2022-12-20T20:46:42.528Z,17.86
2022-12-20T20:49:08.138Z,17.85
2022-12-20T20:51:33.950Z,17.86
2022-12-20T20:53:59.528Z,17.86
2022-12-20T20:56:25.660Z,17.86
2022-12-20T20:58:51.687Z,17.84
2022-12-20T21:01:17.302Z,17.85
2022-12-20T21:03:42.906Z,17.85
2022-12-20T21:08:54.380Z,17.84
2022-12-20T21:11:20.255Z,17.84
2022-12-20T21:13:45.877Z,17.85
2022-12-20T21:16:12.502Z,17.85
2022-12-20T21:18:38.207Z,17.84
2022-12-20T21:21:05.782Z,17.84
2022-12-20T21:23:31.327Z,17.85
2022-12-20T21:25:57.222Z,17.84
2022-12-20T21:28:22.771Z,17.84
2022-12-20T21:30:56.134Z,17.83
2022-12-20T21:33:21.703Z,17.82
2022-12-20T21:35:53.760Z,17.83
2022-12-20T21:38:19.688Z,17.83
2022-12-20T21:40:45.250Z,17.83
2022-12-20T21:43:10.803Z,17.83
2022-12-20T21:45:36.358Z,17.82
2022-12-20T21:48:03.587Z,17.82
2022-12-20T21:50:29.300Z,17.83
2022-12-20T21:52:54.870Z,17.83
2022-12-20T21:55:20.453Z,17.83
2022-12-20T21:57:47.233Z,17.81
2022-12-20T22:00:12.918Z,17.83
2022-12-20T22:02:38.636Z,17.82
2022-12-20T22:05:04.310Z,17.82
2022-12-20T22:07:29.869Z,17.82
2022-12-20T22:09:55.419Z,17.82
2022-12-20T22:12:20.983Z,17.82
2022-12-20T22:14:46.547Z,17.81
2022-12-20T22:17:12.350Z,17.81
2022-12-20T22:19:37.896Z,17.80
2022-12-20T22:22:03.456Z,17.80
2022-12-20T22:24:29.005Z,17.80
2022-12-20T22:26:54.573Z,17.79
2022-12-20T22:29:20.151Z,17.82
2022-12-20T22:31:45.744Z,17.79
2022-12-20T22:34:11.313Z,17.79
2022-12-20T22:36:37.109Z,17.79
2022-12-20T22:39:03.682Z,17.80
2022-12-20T22:41:31.497Z,17.79
2022-12-20T22:43:57.585Z,17.79
2022-12-20T22:46:23.175Z,17.79
2022-12-20T22:48:48.765Z,17.80
2022-12-20T22:51:15.812Z,17.78
2022-12-20T22:53:41.501Z,17.79
2022-12-20T22:56:07.250Z,17.78
2022-12-20T22:58:33.263Z,17.78
2022-12-20T23:03:49.909Z,17.79
2022-12-20T23:06:16.613Z,17.78
2022-12-20T23:08:42.311Z,17.79
2022-12-20T23:11:32.408Z,17.78
2022-12-20T23:14:17.883Z,17.78
2022-12-20T23:16:43.537Z,17.77
2022-12-20T23:19:09.257Z,17.78
2022-12-20T23:21:54.736Z,17.77
2022-12-20T23:24:20.282Z,17.78
2022-12-20T23:26:45.854Z,17.78
2022-12-20T23:29:12.597Z,17.78
2022-12-20T23:31:38.235Z,17.77
2022-12-20T23:34:03.835Z,17.78
2022-12-20T23:36:29.595Z,17.77
2022-12-20T23:38:55.421Z,17.76
2022-12-20T23:41:20.976Z,17.77
2022-12-20T23:43:46.563Z,17.78
2022-12-20T23:46:13.385Z,17.77
2022-12-20T23:48:38.963Z,17.76
2022-12-20T23:51:04.945Z,17.76
2022-12-20T23:53:30.704Z,17.77
2022-12-20T23:55:59.026Z,17.76
2022-12-20T23:58:24.623Z,17.77
